Time,TemperatureF,DewpointF,PressureIn,WindDirection,WindDirectionDegrees,WindSpeedMPH,WindSpeedGustMPH,Humidity,HourlyPrecipIn,Conditions,Clouds,dailyrainin,SolarRadiationWatts/m^2,SoftwareType,DateUTC
2013-02-11 00:01:00,20.0,18.0,-100.00,ENE,67,8.0,9.0,91,0.00,,,0.05,0.000000,,2013-02-11 07:01:00,
2013-02-11 00:11:00,20.0,18.0,-100.00,ENE,67,8.0,9.0,91,0.00,,,0.05,0.000000,,2013-02-11 07:11:00,
2013-02-11 00:21:00,20.0,18.0,-100.00,ENE,67,8.0,9.0,91,0.00,,,0.05,0.000000,,2013-02-11 07:21:00,
2013-02-11 00:31:00,20.0,18.0,-100.00,ENE,67,8.0,9.0,91,0.00,,,0.05,0.000000,,2013-02-11 07:31:00,
2013-02-11 00:52:00,20.0,18.0,-100.00,ENE,60,9.0,13.0,92,0.00,,,0.05,0.000000,,2013-02-11 07:52:00,
2013-02-11 01:01:00,20.0,18.0,-100.00,ENE,60,9.0,13.0,92,0.00,,,0.05,0.000000,,2013-02-11 08:01:00,
2013-02-11 01:11:00,20.0,18.0,-100.00,ENE,60,9.0,13.0,92,0.00,,,0.05,0.000000,,2013-02-11 08:11:00,
2013-02-11 01:21:00,20.0,18.0,-100.00,ENE,60,9.0,13.0,92,0.00,,,0.05,0.000000,,2013-02-11 08:21:00,
2013-02-11 01:31:00,20.0,18.0,-100.00,ENE,60,9.0,13.0,92,0.00,,,0.05,0.000000,,2013-02-11 08:31:00,
2013-02-11 01:52:00,20.0,18.0,-100.00,ENE,63,9.0,13.0,91,0.00,,,0.05,0.000000,,2013-02-11 08:52:00,
2013-02-11 02:01:00,20.0,18.0,-100.00,ENE,63,9.0,13.0,91,0.00,,,0.05,0.000000,,2013-02-11 09:01:00,
2013-02-11 02:12:00,20.0,18.0,-100.00,ENE,63,9.0,13.0,91,0.00,,,0.05,0.000000,,2013-02-11 09:12:00,
2013-02-11 02:21:00,20.0,18.0,-100.00,ENE,63,9.0,13.0,91,0.00,,,0.05,0.000000,,2013-02-11 09:21:00,
2013-02-11 02:31:00,20.0,18.0,-100.00,ENE,63,9.0,13.0,91,0.00,,,0.05,0.000000,,2013-02-11 09:31:00,
2013-02-11 02:52:00,19.0,17.0,-100.00,ENE,69,8.0,11.0,93,0.00,,,-99.99,0.000000,,2013-02-11 09:52:00,
2013-02-11 03:01:00,19.0,17.0,-100.00,ENE,69,8.0,11.0,93,0.00,,,-99.99,0.000000,,2013-02-11 10:01:00,
2013-02-11 03:11:00,19.0,17.0,-100.00,ENE,69,8.0,11.0,93,0.00,,,-99.99,0.000000,,2013-02-11 10:11:00,
2013-02-11 03:21:00,19.0,17.0,-100.00,ENE,69,8.0,11.0,93,0.00,,,-99.99,0.000000,,2013-02-11 10:21:00,
2013-02-11 03:31:00,19.0,17.0,-100.00,ENE,69,8.0,11.0,93,0.00,,,-99.99,0.000000,,2013-02-11 10:31:00,
2013-02-11 03:52:00,20.0,18.0,-100.00,ESE,107,3.0,7.0,93,0.00,,,0.05,0.000000,,2013-02-11 10:52:00,
2013-02-11 04:01:00,20.0,18.0,-100.00,ESE,107,3.0,7.0,93,0.00,,,0.05,0.000000,,2013-02-11 11:01:00,
2013-02-11 04:11:00,20.0,18.0,-100.00,ESE,107,3.0,7.0,93,0.00,,,0.05,0.000000,,2013-02-11 11:11:00,
2013-02-11 04:22:00,20.0,18.0,-100.00,ESE,107,3.0,7.0,93,0.00,,,0.05,0.000000,,2013-02-11 11:22:00,
2013-02-11 04:32:00,20.0,18.0,-100.00,ESE,107,3.0,7.0,93,0.00,,,0.05,0.000000,,2013-02-11 11:32:00,
2013-02-11 04:52:00,20.0,18.0,-100.00,East,88,3.0,4.0,93,0.00,,,0.05,0.000000,,2013-02-11 11:52:00,
2013-02-11 05:03:00,20.0,18.0,-100.00,East,88,3.0,4.0,93,0.00,,,0.05,0.000000,,2013-02-11 12:03:00,
2013-02-11 05:12:00,20.0,18.0,-100.00,East,88,3.0,4.0,93,0.00,,,0.05,0.000000,,2013-02-11 12:12:00,
2013-02-11 05:22:00,20.0,18.0,-100.00,East,88,3.0,4.0,93,0.00,,,0.05,0.000000,,2013-02-11 12:22:00,
2013-02-11 05:31:00,20.0,18.0,-100.00,East,88,3.0,4.0,93,0.00,,,0.05,0.000000,,2013-02-11 12:31:00,
2013-02-11 05:52:00,19.0,17.0,-100.00,East,100,6.0,8.0,92,0.00,,,-99.99,0.000000,,2013-02-11 12:52:00,
2013-02-11 06:01:00,19.0,17.0,-100.00,East,100,6.0,8.0,92,0.00,,,-99.99,0.000000,,2013-02-11 13:01:00,
2013-02-11 06:11:00,19.0,17.0,-100.00,East,100,6.0,8.0,92,0.00,,,-99.99,0.000000,,2013-02-11 13:11:00,
2013-02-11 06:21:00,19.0,17.0,-100.00,East,100,6.0,8.0,92,0.00,,,-99.99,0.000000,,2013-02-11 13:21:00,
2013-02-11 06:32:00,19.0,17.0,-100.00,East,100,6.0,8.0,92,0.00,,,-99.99,0.000000,,2013-02-11 13:32:00,
2013-02-11 06:52:00,17.0,15.0,-100.00,ESE,110,7.0,8.0,91,0.00,,,-99.99,0.000000,,2013-02-11 13:52:00,
2013-02-11 07:01:00,17.0,15.0,-100.00,ESE,110,7.0,8.0,91,0.00,,,-99.99,0.000000,,2013-02-11 14:01:00,
2013-02-11 07:11:00,17.0,15.0,-100.00,ESE,110,7.0,8.0,91,0.00,,,-99.99,0.000000,,2013-02-11 14:11:00,
2013-02-11 07:21:00,17.0,15.0,-100.00,ESE,110,7.0,8.0,91,0.00,,,-99.99,0.000000,,2013-02-11 14:21:00,
2013-02-11 07:32:00,17.0,15.0,-100.00,ESE,110,7.0,8.0,91,0.00,,,-99.99,0.000000,,2013-02-11 14:32:00,
2013-02-11 07:53:00,17.0,15.0,-100.00,East,93,6.0,10.0,91,0.00,,,0.05,2.000000,,2013-02-11 14:53:00,
2013-02-11 08:01:00,17.0,15.0,-100.00,East,93,6.0,10.0,91,0.00,,,0.05,2.000000,,2013-02-11 15:01:00,
2013-02-11 08:11:00,17.0,15.0,-100.00,East,93,6.0,10.0,91,0.00,,,0.05,2.000000,,2013-02-11 15:11:00,
2013-02-11 08:22:00,17.0,15.0,-100.00,East,93,6.0,10.0,91,0.00,,,0.05,2.000000,,2013-02-11 15:22:00,
2013-02-11 08:31:00,17.0,15.0,-100.00,East,93,6.0,10.0,91,0.00,,,0.05,2.000000,,2013-02-11 15:31:00,
2013-02-11 08:52:00,21.0,19.0,-100.00,East,85,4.0,8.0,90,0.00,,,0.05,74.000000,,2013-02-11 15:52:00,
2013-02-11 09:01:00,21.0,19.0,-100.00,East,85,4.0,8.0,90,0.00,,,0.05,74.000000,,2013-02-11 16:01:00,
2013-02-11 09:11:00,21.0,19.0,-100.00,East,85,4.0,8.0,90,0.00,,,0.05,74.000000,,2013-02-11 16:11:00,
2013-02-11 09:21:00,21.0,19.0,-100.00,East,85,4.0,8.0,90,0.00,,,0.05,74.000000,,2013-02-11 16:21:00,
2013-02-11 09:31:00,21.0,19.0,-100.00,East,85,4.0,8.0,90,0.00,,,0.05,74.000000,,2013-02-11 16:31:00,
2013-02-11 09:52:00,22.0,18.0,-100.00,ENE,76,5.0,7.0,84,0.00,,,0.05,111.000000,,2013-02-11 16:52:00,
2013-02-11 10:01:00,22.0,18.0,-100.00,ENE,76,5.0,7.0,84,0.00,,,0.05,111.000000,,2013-02-11 17:01:00,
2013-02-11 10:11:00,22.0,18.0,-100.00,ENE,76,5.0,7.0,84,0.00,,,0.05,111.000000,,2013-02-11 17:11:00,
2013-02-11 10:21:00,22.0,18.0,-100.00,ENE,76,5.0,7.0,84,0.00,,,0.05,111.000000,,2013-02-11 17:21:00,
2013-02-11 10:31:00,22.0,18.0,-100.00,ENE,76,5.0,7.0,84,0.00,,,0.05,111.000000,,2013-02-11 17:31:00,
2013-02-11 10:53:00,23.0,18.0,-100.00,ENE,78,5.0,8.0,81,0.00,,,0.01,133.000000,,2013-02-11 17:53:00,
2013-02-11 11:01:00,23.0,18.0,-100.00,ENE,78,5.0,8.0,81,0.00,,,0.01,133.000000,,2013-02-11 18:01:00,
2013-02-11 11:11:00,23.0,18.0,-100.00,ENE,78,5.0,8.0,81,0.00,,,0.01,133.000000,,2013-02-11 18:11:00,
2013-02-11 11:21:00,23.0,18.0,-100.00,ENE,78,5.0,8.0,81,0.00,,,0.01,133.000000,,2013-02-11 18:21:00,
2013-02-11 11:31:00,23.0,18.0,-100.00,ENE,78,5.0,8.0,81,0.00,,,0.01,133.000000,,2013-02-11 18:31:00,
2013-02-11 11:53:00,30.0,20.0,-100.00,SSE,152,3.0,9.0,65,0.08,,,0.08,445.000000,,2013-02-11 18:53:00,
2013-02-11 12:01:00,30.0,20.0,-100.00,SSE,152,3.0,9.0,65,0.08,,,0.08,445.000000,,2013-02-11 19:01:00,
2013-02-11 12:11:00,30.0,20.0,-100.00,SSE,152,3.0,9.0,65,0.08,,,0.08,445.000000,,2013-02-11 19:11:00,
2013-02-11 12:21:00,30.0,20.0,-100.00,SSE,152,3.0,9.0,65,0.08,,,0.08,445.000000,,2013-02-11 19:21:00,
2013-02-11 12:31:00,30.0,20.0,-100.00,SSE,152,3.0,9.0,65,0.08,,,0.08,445.000000,,2013-02-11 19:31:00,
2013-02-11 13:01:00,22.0,18.0,-100.00,ENE,62,5.0,9.0,83,0.03,,,0.11,324.000000,,2013-02-11 20:01:00,
2013-02-11 13:11:00,22.0,18.0,-100.00,ENE,62,5.0,9.0,83,0.03,,,0.11,324.000000,,2013-02-11 20:11:00,
2013-02-11 13:21:00,22.0,18.0,-100.00,ENE,62,5.0,9.0,83,0.03,,,0.11,324.000000,,2013-02-11 20:21:00,
2013-02-11 13:31:00,22.0,18.0,-100.00,ENE,62,5.0,9.0,83,0.03,,,0.11,324.000000,,2013-02-11 20:31:00,
2013-02-11 13:52:00,25.0,19.0,-100.00,NE,50,5.0,7.0,79,0.01,,,0.12,365.000000,,2013-02-11 20:52:00,
2013-02-11 14:02:00,25.0,19.0,-100.00,NE,50,5.0,7.0,79,0.01,,,0.12,365.000000,,2013-02-11 21:02:00,
2013-02-11 14:11:00,25.0,19.0,-100.00,NE,50,5.0,7.0,79,0.01,,,0.12,365.000000,,2013-02-11 21:11:00,
2013-02-11 14:21:00,25.0,19.0,-100.00,NE,50,5.0,7.0,79,0.01,,,0.12,365.000000,,2013-02-11 21:21:00,
2013-02-11 14:31:00,25.0,19.0,-100.00,NE,50,5.0,7.0,79,0.01,,,0.12,365.000000,,2013-02-11 21:31:00,
2013-02-11 14:52:00,24.0,18.0,-100.00,NE,43,8.0,9.0,76,0.01,,,0.13,523.000000,,2013-02-11 21:52:00,
2013-02-11 15:01:00,24.0,18.0,-100.00,NE,43,8.0,9.0,76,0.01,,,0.13,523.000000,,2013-02-11 22:01:00,
2013-02-11 15:11:00,24.0,18.0,-100.00,NE,43,8.0,9.0,76,0.01,,,0.13,523.000000,,2013-02-11 22:11:00,
2013-02-11 15:21:00,24.0,18.0,-100.00,NE,43,8.0,9.0,76,0.01,,,0.13,523.000000,,2013-02-11 22:21:00,
2013-02-11 15:31:00,24.0,18.0,-100.00,NE,43,8.0,9.0,76,0.01,,,0.13,523.000000,,2013-02-11 22:31:00,
2013-02-11 15:52:00,22.0,16.0,-100.00,ENE,57,6.0,11.0,78,0.00,,,0.13,255.000000,,2013-02-11 22:52:00,
2013-02-11 16:01:00,22.0,16.0,-100.00,ENE,57,6.0,11.0,78,0.00,,,0.13,255.000000,,2013-02-11 23:01:00,
2013-02-11 16:11:00,22.0,16.0,-100.00,ENE,57,6.0,11.0,78,0.00,,,0.13,255.000000,,2013-02-11 23:11:00,
2013-02-11 16:21:00,22.0,16.0,-100.00,ENE,57,6.0,11.0,78,0.00,,,0.13,255.000000,,2013-02-11 23:21:00,
2013-02-11 16:31:00,22.0,16.0,-100.00,ENE,57,6.0,11.0,78,0.00,,,0.13,255.000000,,2013-02-11 23:31:00,
2013-02-11 16:52:00,21.0,14.0,-100.00,East,79,6.0,9.0,73,0.00,,,0.13,145.000000,,2013-02-11 23:52:00,
2013-02-11 17:01:00,21.0,14.0,-100.00,East,79,6.0,9.0,73,0.00,,,0.13,145.000000,,2013-02-12 00:01:00,
2013-02-11 17:11:00,21.0,14.0,-100.00,East,79,6.0,9.0,73,0.00,,,0.13,145.000000,,2013-02-12 00:11:00,
2013-02-11 17:21:00,21.0,14.0,-100.00,East,79,6.0,9.0,73,0.00,,,0.13,145.000000,,2013-02-12 00:21:00,
2013-02-11 17:31:00,21.0,14.0,-100.00,East,79,6.0,9.0,73,0.00,,,0.13,145.000000,,2013-02-12 00:31:00,
2013-02-11 17:52:00,22.0,12.0,-100.00,NE,55,4.0,6.0,64,0.00,,,0.13,94.000000,,2013-02-12 00:52:00,
2013-02-11 18:01:00,22.0,12.0,-100.00,NE,55,4.0,6.0,64,0.00,,,0.13,94.000000,,2013-02-12 01:01:00,
2013-02-11 18:11:00,22.0,12.0,-100.00,NE,55,4.0,6.0,64,0.00,,,0.13,94.000000,,2013-02-12 01:11:00,
2013-02-11 18:21:00,22.0,12.0,-100.00,NE,55,4.0,6.0,64,0.00,,,0.13,94.000000,,2013-02-12 01:21:00,
2013-02-11 18:31:00,22.0,12.0,-100.00,NE,55,4.0,6.0,64,0.00,,,0.13,94.000000,,2013-02-12 01:31:00,
2013-02-11 18:52:00,19.0,11.0,-100.00,NE,45,6.0,8.0,69,0.00,,,-99.99,4.000000,,2013-02-12 01:52:00,
2013-02-11 19:01:00,19.0,11.0,-100.00,NE,45,6.0,8.0,69,0.00,,,-99.99,4.000000,,2013-02-12 02:01:00,
2013-02-11 19:11:00,19.0,11.0,-100.00,NE,45,6.0,8.0,69,0.00,,,-99.99,4.000000,,2013-02-12 02:11:00,
2013-02-11 19:21:00,19.0,11.0,-100.00,NE,45,6.0,8.0,69,0.00,,,-99.99,4.000000,,2013-02-12 02:21:00,
2013-02-11 19:31:00,19.0,11.0,-100.00,NE,45,6.0,8.0,69,0.00,,,-99.99,4.000000,,2013-02-12 02:31:00,
2013-02-11 19:52:00,18.0,5.0,-100.00,NNE,18,7.0,8.0,57,0.00,,,0.13,0.000000,,2013-02-12 02:52:00,
2013-02-11 20:02:00,18.0,5.0,-100.00,NNE,18,7.0,8.0,57,0.00,,,0.13,0.000000,,2013-02-12 03:02:00,
2013-02-11 20:11:00,18.0,5.0,-100.00,NNE,18,7.0,8.0,57,0.00,,,0.13,0.000000,,2013-02-12 03:11:00,
2013-02-11 20:21:00,18.0,5.0,-100.00,NNE,18,7.0,8.0,57,0.00,,,0.13,0.000000,,2013-02-12 03:21:00,
2013-02-11 20:31:00,18.0,5.0,-100.00,NNE,18,7.0,8.0,57,0.00,,,0.13,0.000000,,2013-02-12 03:31:00,
2013-02-11 20:52:00,18.0,4.0,-100.00,NE,43,5.0,9.0,54,0.00,,,0.13,0.000000,,2013-02-12 03:52:00,
2013-02-11 21:01:00,18.0,4.0,-100.00,NE,43,5.0,9.0,54,0.00,,,0.13,0.000000,,2013-02-12 04:01:00,
2013-02-11 21:11:00,18.0,4.0,-100.00,NE,43,5.0,9.0,54,0.00,,,0.13,0.000000,,2013-02-12 04:11:00,
2013-02-11 21:21:00,18.0,4.0,-100.00,NE,43,5.0,9.0,54,0.00,,,0.13,0.000000,,2013-02-12 04:21:00,
2013-02-11 21:31:00,18.0,4.0,-100.00,NE,43,5.0,9.0,54,0.00,,,0.13,0.000000,,2013-02-12 04:31:00,
2013-02-11 21:52:00,16.0,3.0,-100.00,NE,35,4.0,7.0,57,0.00,,,0.13,0.000000,,2013-02-12 04:52:00,
2013-02-11 22:01:00,16.0,3.0,-100.00,NE,35,4.0,7.0,57,0.00,,,0.13,0.000000,,2013-02-12 05:01:00,
2013-02-11 22:11:00,16.0,3.0,-100.00,NE,35,4.0,7.0,57,0.00,,,0.13,0.000000,,2013-02-12 05:11:00,
2013-02-11 22:21:00,16.0,3.0,-100.00,NE,35,4.0,7.0,57,0.00,,,0.13,0.000000,,2013-02-12 05:21:00,
2013-02-11 22:31:00,16.0,3.0,-100.00,NE,35,4.0,7.0,57,0.00,,,0.13,0.000000,,2013-02-12 05:31:00,
2013-02-11 22:52:00,15.0,4.0,-100.00,East,84,6.0,7.0,60,0.00,,,0.13,0.000000,,2013-02-12 05:52:00,
2013-02-11 23:01:00,15.0,4.0,-100.00,East,84,6.0,7.0,60,0.00,,,0.13,0.000000,,2013-02-12 06:01:00,
2013-02-11 23:12:00,15.0,4.0,-100.00,East,84,6.0,7.0,60,0.00,,,0.13,0.000000,,2013-02-12 06:12:00,
2013-02-11 23:21:00,15.0,4.0,-100.00,East,84,6.0,7.0,60,0.00,,,0.13,0.000000,,2013-02-12 06:21:00,
2013-02-11 23:31:00,15.0,4.0,-100.00,East,84,6.0,7.0,60,0.00,,,0.13,0.000000,,2013-02-12 06:31:00,
2013-02-11 23:52:00,15.0,3.0,-100.00,ENE,60,6.0,8.0,57,0.00,,,0.13,0.000000,,2013-02-12 06:52:00,